Terminal Aerodrome Forecast
Issued by NWS

Current Version | Previous Version | Text Only | Print | Product List | Glossary On
Versions: 1 2 3 4 5 6 7 8 9 10 11 12 13 14 15 16 17
751
FTUS43 KICT 311012 AAC
TAFHUT
TAF AMD
KHUT 311012Z 3110/0106 35010G20KT 5SM -TSRA BKN035CB
      TEMPO 3110/3112 15012KT 6SM -RA OVC050
     FM311800 02010KT P6SM VCTS BKN040CB=

USA.gov is the U.S. government's official web portal to all federal, state and local government web resources and services.